Refton, Pennsylvania
Current Conditions -  °F | °C
As of 2:53 PM on Friday 21 Nov 2014 (Local Time) from KLNS Reporting Station
Clear Clear  
Wind Chill: 27°   Ceiling: Unl
Heat Index: 34°   Visibility: 10mi
Dew Point:   Wind: 9mph
Humidity: 34%   Direction: 330°NNW
Pressure: 30.41"   Gusts: NA
Location:  39.95°N, 76.23°W
Report Text: KLNS 211953Z 33008KT 10SM CLR 01/M13 A3041 RMK AO2 SLP302 T00111133
Loading
Personal Weather Stations






























Interactive Weather Map New forecast layout! Learn more

10-Day Weather Forecast

Advertisements
Track Severe Weather on mobile